createdAt,value
2023-01-07T00:00:54.084Z,1004.23
2023-01-07T00:01:54.069Z,1004.23
2023-01-07T00:02:54.114Z,1004.20
2023-01-07T00:03:54.082Z,1004.21
2023-01-07T00:04:54.011Z,1004.23
2023-01-07T00:05:54.057Z,1004.23
2023-01-07T00:06:53.999Z,1004.22
2023-01-07T00:07:53.972Z,1004.23
2023-01-07T00:08:53.982Z,1004.23
2023-01-07T00:09:53.965Z,1004.23
2023-01-07T00:10:53.973Z,1004.22
2023-01-07T00:11:53.973Z,1004.20
2023-01-07T00:12:53.983Z,1004.19
2023-01-07T00:13:53.934Z,1004.20
2023-01-07T00:14:53.915Z,1004.21
2023-01-07T00:15:53.969Z,1004.22
2023-01-07T00:16:53.919Z,1004.19
2023-01-07T00:17:53.874Z,1004.21
2023-01-07T00:18:53.868Z,1004.18
2023-01-07T00:19:53.848Z,1004.19
2023-01-07T00:20:53.880Z,1004.18
2023-01-07T00:21:53.832Z,1004.18
2023-01-07T00:22:53.850Z,1004.18
2023-01-07T00:23:53.854Z,1004.17
2023-01-07T00:24:53.810Z,1004.20
2023-01-07T00:25:53.800Z,1004.18
2023-01-07T00:26:53.802Z,1004.16
2023-01-07T00:27:53.778Z,1004.16
2023-01-07T00:28:53.771Z,1004.14
2023-01-07T00:29:53.748Z,1004.17
2023-01-07T00:30:53.750Z,1004.14
2023-01-07T00:31:53.791Z,1004.14
2023-01-07T00:32:53.743Z,1004.13
2023-01-07T00:33:53.710Z,1004.08
2023-01-07T00:34:53.700Z,1004.09
2023-01-07T00:35:53.680Z,1004.06
2023-01-07T00:36:53.698Z,1004.07
2023-01-07T00:37:53.667Z,1004.06
2023-01-07T00:38:53.659Z,1004.07
2023-01-07T00:39:53.669Z,1004.05
2023-01-07T00:40:53.639Z,1004.04
2023-01-07T00:41:53.640Z,1004.04
2023-01-07T00:42:53.621Z,1004.02
2023-01-07T00:43:53.605Z,1004.01
2023-01-07T00:44:53.596Z,1004.03
2023-01-07T00:45:53.592Z,1004.00
2023-01-07T00:46:53.614Z,1004.04
2023-01-07T00:47:53.580Z,1004.02
2023-01-07T00:48:53.577Z,1004.03
2023-01-07T00:49:53.539Z,1004.02
2023-01-07T00:50:53.545Z,1004.01
2023-01-07T00:51:53.548Z,1004.02
2023-01-07T00:52:53.512Z,1004.03
2023-01-07T00:53:53.503Z,1004.00
2023-01-07T00:54:53.503Z,1004.00
2023-01-07T00:55:53.534Z,1003.99
2023-01-07T00:56:53.530Z,1004.00
2023-01-07T00:57:53.458Z,1003.97
2023-01-07T00:58:53.444Z,1003.96
2023-01-07T00:59:53.459Z,1003.96
2023-01-07T01:00:53.490Z,1003.97
2023-01-07T01:01:53.532Z,1003.97
2023-01-07T01:02:53.536Z,1003.96
2023-01-07T01:03:53.396Z,1003.93
2023-01-07T01:04:53.386Z,1003.94
2023-01-07T01:05:53.365Z,1003.95
2023-01-07T01:06:53.396Z,1003.91
2023-01-07T01:07:53.344Z,1003.91
2023-01-07T01:08:53.343Z,1003.90
2023-01-07T01:09:53.333Z,1003.88
2023-01-07T01:10:53.322Z,1003.86
2023-01-07T01:11:53.334Z,1003.86
2023-01-07T01:12:53.299Z,1003.86
2023-01-07T01:13:53.303Z,1003.84
2023-01-07T01:14:53.297Z,1003.84
2023-01-07T01:15:53.360Z,1003.85
2023-01-07T01:16:53.276Z,1003.84
2023-01-07T01:17:53.253Z,1003.86
2023-01-07T01:18:53.268Z,1003.86
2023-01-07T01:19:53.290Z,1003.86
2023-01-07T01:20:53.236Z,1003.80
2023-01-07T01:21:53.241Z,1003.80
2023-01-07T01:22:53.279Z,1003.83
2023-01-07T01:23:53.244Z,1003.82
2023-01-07T01:24:53.178Z,1003.84
2023-01-07T01:25:53.164Z,1003.84
2023-01-07T01:26:53.174Z,1003.80
2023-01-07T01:27:53.142Z,1003.78
2023-01-07T01:28:53.139Z,1003.84
2023-01-07T01:29:53.112Z,1003.82
2023-01-07T01:30:53.160Z,1003.84
2023-01-07T01:31:53.199Z,1003.83
2023-01-07T01:32:53.093Z,1003.81
2023-01-07T01:33:53.096Z,1003.80
2023-01-07T01:34:53.072Z,1003.79
2023-01-07T01:35:53.073Z,1003.77
2023-01-07T01:36:53.081Z,1003.81
2023-01-07T01:37:53.042Z,1003.84
2023-01-07T01:38:53.031Z,1003.81
2023-01-07T01:39:53.021Z,1003.81
2023-01-07T01:40:53.030Z,1003.82
2023-01-07T01:41:53.027Z,1003.81
2023-01-07T01:42:59.521Z,1003.82
2023-01-07T01:43:59.465Z,1003.80
2023-01-07T01:44:59.505Z,1003.81
2023-01-07T01:45:59.457Z,1003.78
2023-01-07T01:47:00.695Z,1003.78
2023-01-07T01:47:59.436Z,1003.79
2023-01-07T01:48:52.919Z,1003.79
2023-01-07T01:49:59.437Z,1003.78
2023-01-07T01:50:59.392Z,1003.77
2023-01-07T01:52:01.602Z,1003.77
2023-01-07T01:52:59.416Z,1003.76
2023-01-07T01:53:59.415Z,1003.73
2023-01-07T01:54:52.861Z,1003.75
2023-01-07T01:55:52.848Z,1003.74
2023-01-07T01:56:52.878Z,1003.75
2023-01-07T01:57:52.830Z,1003.75
2023-01-07T01:58:52.868Z,1003.70
2023-01-07T01:59:59.304Z,1003.71
2023-01-07T02:00:59.476Z,1003.72
2023-01-07T02:02:00.821Z,1003.76
2023-01-07T02:02:59.274Z,1003.72
2023-01-07T02:04:00.277Z,1003.73
2023-01-07T02:05:00.288Z,1003.72
2023-01-07T02:05:52.775Z,1003.70
2023-01-07T02:06:52.768Z,1003.70
2023-01-07T02:07:52.836Z,1003.68
2023-01-07T02:08:52.731Z,1003.70
2023-01-07T02:09:52.732Z,1003.73
2023-01-07T02:10:52.738Z,1003.69
2023-01-07T02:11:52.732Z,1003.69
2023-01-07T02:12:52.704Z,1003.64
2023-01-07T02:13:52.698Z,1003.67
2023-01-07T02:14:52.667Z,1003.63
2023-01-07T02:15:52.656Z,1003.62
2023-01-07T02:16:52.644Z,1003.58
2023-01-07T02:17:52.656Z,1003.62
2023-01-07T02:18:52.649Z,1003.60
2023-01-07T02:19:52.610Z,1003.59
2023-01-07T02:20:52.591Z,1003.58
2023-01-07T02:21:52.598Z,1003.58
2023-01-07T02:22:52.600Z,1003.58
2023-01-07T02:23:52.608Z,1003.58
2023-01-07T02:24:52.568Z,1003.56
2023-01-07T02:25:52.549Z,1003.54
2023-01-07T02:26:52.546Z,1003.54
2023-01-07T02:27:52.557Z,1003.54
2023-01-07T02:28:52.522Z,1003.55
2023-01-07T02:29:52.516Z,1003.53
2023-01-07T02:30:52.498Z,1003.53
2023-01-07T02:31:52.520Z,1003.53
2023-01-07T02:32:52.495Z,1003.54
2023-01-07T02:33:52.459Z,1003.54
2023-01-07T02:34:52.448Z,1003.54
2023-01-07T02:35:52.448Z,1003.55
2023-01-07T02:36:52.448Z,1003.56
2023-01-07T02:37:52.451Z,1003.56
2023-01-07T02:38:52.437Z,1003.55
2023-01-07T02:39:52.418Z,1003.56
2023-01-07T02:40:52.401Z,1003.55
2023-01-07T02:41:52.385Z,1003.56
2023-01-07T02:42:52.394Z,1003.54
2023-01-07T02:43:52.399Z,1003.54
2023-01-07T02:44:52.350Z,1003.51
2023-01-07T02:45:52.428Z,1003.51
2023-01-07T02:46:52.346Z,1003.49
2023-01-07T02:47:52.348Z,1003.47
2023-01-07T02:48:52.340Z,1003.48
2023-01-07T02:49:52.297Z,1003.46
2023-01-07T02:50:52.292Z,1003.42
2023-01-07T02:51:52.277Z,1003.43
2023-01-07T02:52:52.289Z,1003.39
2023-01-07T02:53:52.252Z,1003.40
2023-01-07T02:54:52.238Z,1003.36
2023-01-07T02:55:52.243Z,1003.35
2023-01-07T02:56:52.222Z,1003.33
2023-01-07T02:57:52.272Z,1003.35
2023-01-07T02:58:52.196Z,1003.31
2023-01-07T02:59:52.245Z,1003.29
2023-01-07T03:00:52.340Z,1003.30
2023-01-07T03:01:52.503Z,1003.30
2023-01-07T03:02:52.177Z,1003.26
2023-01-07T03:03:52.198Z,1003.29
2023-01-07T03:04:52.139Z,1003.29
2023-01-07T03:05:52.121Z,1003.28
2023-01-07T03:06:52.141Z,1003.27
2023-01-07T03:07:52.140Z,1003.28
2023-01-07T03:08:52.102Z,1003.27
2023-01-07T03:09:52.124Z,1003.26
2023-01-07T03:10:52.085Z,1003.26
2023-01-07T03:11:52.075Z,1003.26
2023-01-07T03:12:52.114Z,1003.24
2023-01-07T03:13:52.145Z,1003.23
2023-01-07T03:14:52.029Z,1003.21
2023-01-07T03:15:52.042Z,1003.20
2023-01-07T03:16:52.027Z,1003.20
2023-01-07T03:17:52.056Z,1003.19
2023-01-07T03:18:52.000Z,1003.16
2023-01-07T03:19:52.030Z,1003.17
2023-01-07T03:20:51.986Z,1003.13
2023-01-07T03:21:51.962Z,1003.13
2023-01-07T03:22:51.966Z,1003.10
2023-01-07T03:23:51.953Z,1003.10
2023-01-07T03:24:51.933Z,1003.09
2023-01-07T03:25:51.911Z,1003.09
2023-01-07T03:26:51.914Z,1003.09
2023-01-07T03:27:51.918Z,1003.10
2023-01-07T03:28:51.886Z,1003.10
2023-01-07T03:29:51.937Z,1003.10
2023-01-07T03:30:51.949Z,1003.09
2023-01-07T03:31:51.916Z,1003.07
2023-01-07T03:32:51.864Z,1003.08
2023-01-07T03:33:51.838Z,1003.06
2023-01-07T03:34:51.834Z,1003.05
2023-01-07T03:35:51.819Z,1003.05
2023-01-07T03:36:51.804Z,1003.03
2023-01-07T03:37:51.822Z,1003.05
2023-01-07T03:38:51.774Z,1003.04
2023-01-07T03:39:51.779Z,1003.03
2023-01-07T03:40:51.773Z,1003.03
2023-01-07T03:41:51.751Z,1003.00
2023-01-07T03:42:51.797Z,1002.98
2023-01-07T03:43:51.739Z,1003.01
2023-01-07T03:44:51.738Z,1003.03
2023-01-07T03:45:51.787Z,1003.02
2023-01-07T03:46:51.698Z,1002.99
2023-01-07T03:47:51.721Z,1002.97
2023-01-07T03:48:51.699Z,1002.95
2023-01-07T03:49:51.684Z,1002.96
2023-01-07T03:50:51.683Z,1002.93
2023-01-07T03:51:51.683Z,1002.90
2023-01-07T03:52:51.637Z,1002.90
2023-01-07T03:53:51.645Z,1002.89
2023-01-07T03:54:51.638Z,1002.90
2023-01-07T03:55:51.629Z,1002.86
2023-01-07T03:56:51.620Z,1002.92
2023-01-07T03:57:51.607Z,1002.88
2023-01-07T03:58:51.613Z,1002.90
2023-01-07T03:59:51.605Z,1002.85
2023-01-07T04:00:51.670Z,1002.84
2023-01-07T04:01:51.734Z,1002.86
2023-01-07T04:02:51.592Z,1002.88
2023-01-07T04:03:51.546Z,1002.86
2023-01-07T04:04:51.615Z,1002.86
2023-01-07T04:05:51.523Z,1002.82
2023-01-07T04:06:58.990Z,1002.81
2023-01-07T04:07:51.490Z,1002.81
2023-01-07T04:08:51.493Z,1002.79
2023-01-07T04:09:51.495Z,1002.77
2023-01-07T04:10:51.448Z,1002.80
2023-01-07T04:11:51.447Z,1002.78
2023-01-07T04:12:51.448Z,1002.76
2023-01-07T04:13:51.454Z,1002.77
2023-01-07T04:14:59.333Z,1002.74
2023-01-07T04:15:57.904Z,1002.72
2023-01-07T04:16:57.884Z,1002.75
2023-01-07T04:17:51.389Z,1002.72
2023-01-07T04:18:51.397Z,1002.71
2023-01-07T04:19:51.364Z,1002.71
2023-01-07T04:20:51.409Z,1002.70
2023-01-07T04:21:51.377Z,1002.70
2023-01-07T04:22:51.326Z,1002.72
2023-01-07T04:23:51.343Z,1002.68
2023-01-07T04:24:51.336Z,1002.65
2023-01-07T04:25:51.312Z,1002.67
2023-01-07T04:26:51.298Z,1002.62
2023-01-07T04:27:51.294Z,1002.65
2023-01-07T04:28:51.282Z,1002.57
2023-01-07T04:29:51.264Z,1002.59
2023-01-07T04:30:51.322Z,1002.54
2023-01-07T04:31:51.271Z,1002.57
2023-01-07T04:32:51.244Z,1002.51
2023-01-07T04:33:51.253Z,1002.47
2023-01-07T04:34:51.322Z,1002.49
2023-01-07T04:35:51.211Z,1002.48
2023-01-07T04:36:51.200Z,1002.44
2023-01-07T04:37:51.177Z,1002.44
2023-01-07T04:38:51.268Z,1002.43
2023-01-07T04:39:51.178Z,1002.40
2023-01-07T04:40:51.148Z,1002.41
2023-01-07T04:41:51.148Z,1002.43
2023-01-07T04:42:51.124Z,1002.41
2023-01-07T04:43:51.146Z,1002.38
2023-01-07T04:44:51.114Z,1002.38
2023-01-07T04:45:51.255Z,1002.39
2023-01-07T04:46:51.098Z,1002.36
2023-01-07T04:47:51.081Z,1002.35
2023-01-07T04:48:51.108Z,1002.35
2023-01-07T04:49:51.080Z,1002.33
2023-01-07T04:50:51.047Z,1002.33
2023-01-07T04:51:51.037Z,1002.33
2023-01-07T04:52:51.024Z,1002.32
2023-01-07T04:53:51.039Z,1002.29
2023-01-07T04:54:51.017Z,1002.28
2023-01-07T04:55:51.040Z,1002.27
2023-01-07T04:56:50.975Z,1002.26
2023-01-07T04:57:51.001Z,1002.23
2023-01-07T04:58:51.000Z,1002.23
2023-01-07T04:59:50.961Z,1002.21
2023-01-07T05:00:50.979Z,1002.21
2023-01-07T05:01:51.127Z,1002.19
2023-01-07T05:02:50.923Z,1002.20
2023-01-07T05:03:50.945Z,1002.21
2023-01-07T05:04:50.966Z,1002.19
2023-01-07T05:05:50.920Z,1002.18
2023-01-07T05:06:50.913Z,1002.18
2023-01-07T05:07:50.883Z,1002.16
2023-01-07T05:08:50.888Z,1002.17
2023-01-07T05:09:50.849Z,1002.14
2023-01-07T05:10:50.848Z,1002.12
2023-01-07T05:11:50.854Z,1002.12
2023-01-07T05:12:50.814Z,1002.11
2023-01-07T05:13:50.839Z,1002.10
2023-01-07T05:14:50.820Z,1002.09
2023-01-07T05:15:50.805Z,1002.09
2023-01-07T05:16:50.987Z,1002.05
2023-01-07T05:17:50.831Z,1002.05
2023-01-07T05:18:50.773Z,1002.05
2023-01-07T05:19:50.787Z,1002.03
2023-01-07T05:20:50.738Z,1002.03
2023-01-07T05:21:50.737Z,1002.00
2023-01-07T05:22:50.714Z,1002.03
2023-01-07T05:23:50.730Z,1002.04
2023-01-07T05:24:50.722Z,1002.02
2023-01-07T05:25:50.694Z,1002.03
2023-01-07T05:26:50.686Z,1002.02
2023-01-07T05:27:50.678Z,1001.99
2023-01-07T05:28:50.662Z,1001.99
2023-01-07T05:29:50.727Z,1001.97
2023-01-07T05:30:50.694Z,1001.97
2023-01-07T05:31:50.618Z,1001.95
2023-01-07T05:32:50.627Z,1001.92
2023-01-07T05:33:50.602Z,1001.92
2023-01-07T05:34:50.609Z,1001.92
2023-01-07T05:35:50.618Z,1001.93
2023-01-07T05:36:50.580Z,1001.94
2023-01-07T05:37:50.561Z,1001.93
2023-01-07T05:38:50.541Z,1001.96
2023-01-07T05:39:50.602Z,1001.92
2023-01-07T05:40:50.526Z,1001.94
2023-01-07T05:41:50.516Z,1001.94
2023-01-07T05:42:50.516Z,1001.93
2023-01-07T05:43:50.445Z,27672.53
2023-01-07T05:44:50.442Z,27672.53
2023-01-07T05:45:50.504Z,27672.53
2023-01-07T05:46:50.412Z,27672.53
2023-01-07T05:47:50.406Z,27672.53
2023-01-07T05:48:50.388Z,27672.53
2023-01-07T05:49:50.398Z,27672.53
2023-01-07T05:50:50.387Z,27672.53
2023-01-07T05:51:50.356Z,27672.53
2023-01-07T05:52:50.344Z,27672.53
2023-01-07T05:53:50.347Z,27672.53
2023-01-07T05:54:50.345Z,27672.53
2023-01-07T05:55:50.315Z,27672.53
2023-01-07T05:56:50.307Z,27672.53
2023-01-07T05:57:50.395Z,27672.53
2023-01-07T05:58:50.287Z,27672.53
2023-01-07T05:59:50.309Z,27672.53
2023-01-07T06:00:50.329Z,27672.53
2023-01-07T06:01:50.324Z,27672.53
2023-01-07T06:02:50.248Z,27672.53
2023-01-07T06:03:50.315Z,27672.53
2023-01-07T06:04:50.317Z,27672.53
2023-01-07T06:05:50.243Z,27672.53
2023-01-07T06:06:50.214Z,27672.53
2023-01-07T06:07:50.218Z,27672.53
2023-01-07T06:08:50.183Z,27672.53
2023-01-07T06:09:50.224Z,27672.53
2023-01-07T06:10:50.189Z,27672.53
2023-01-07T06:11:50.238Z,27672.53
2023-01-07T06:12:50.148Z,27672.53
2023-01-07T06:13:50.141Z,27672.53
2023-01-07T06:14:50.128Z,27672.53
2023-01-07T06:15:50.168Z,27672.53
2023-01-07T06:16:50.108Z,27672.53
2023-01-07T06:17:50.089Z,27672.53
2023-01-07T06:18:50.086Z,27672.53
2023-01-07T06:19:50.071Z,27672.53
2023-01-07T06:20:50.084Z,27672.53
2023-01-07T06:21:50.078Z,27672.53
2023-01-07T06:22:50.048Z,27672.53
2023-01-07T06:23:50.055Z,27672.53
2023-01-07T06:24:50.026Z,27672.53
2023-01-07T06:25:50.077Z,27672.53
2023-01-07T06:26:50.012Z,27672.53
2023-01-07T06:27:49.991Z,27672.53
2023-01-07T06:28:49.989Z,27672.53
2023-01-07T06:29:49.998Z,27672.53
2023-01-07T06:30:50.072Z,27672.53
2023-01-07T06:31:49.953Z,27672.53
2023-01-07T06:32:49.992Z,27672.53
2023-01-07T06:33:49.932Z,27672.53
2023-01-07T06:34:49.924Z,27672.53
2023-01-07T06:35:49.943Z,27672.53
2023-01-07T06:36:56.422Z,27672.53
2023-01-07T06:37:49.886Z,27672.53
2023-01-07T06:38:49.891Z,27672.53
2023-01-07T06:39:49.874Z,27672.53
2023-01-07T06:40:49.922Z,27672.53
2023-01-07T06:41:49.856Z,27672.53
2023-01-07T06:42:49.850Z,27672.53
2023-01-07T06:43:49.874Z,27672.53
2023-01-07T06:44:49.838Z,27672.53
2023-01-07T06:45:57.397Z,27672.53
2023-01-07T06:46:56.291Z,27672.53
2023-01-07T06:47:49.787Z,27672.53
2023-01-07T06:48:49.784Z,27672.53
2023-01-07T06:49:49.854Z,27672.53
2023-01-07T06:50:49.797Z,27672.53
2023-01-07T06:51:49.744Z,27672.53
2023-01-07T06:52:49.743Z,27672.53
2023-01-07T06:53:49.720Z,27672.53
2023-01-07T06:54:49.743Z,27672.53
2023-01-07T06:55:49.753Z,27672.53
2023-01-07T06:56:49.705Z,27672.53
2023-01-07T06:57:49.684Z,27672.53
2023-01-07T06:58:49.676Z,27672.53
2023-01-07T06:59:49.666Z,27672.53
2023-01-07T07:00:49.810Z,27672.53
2023-01-07T07:01:49.784Z,27672.53
2023-01-07T07:02:49.708Z,27672.53
2023-01-07T07:03:49.629Z,27672.53
2023-01-07T07:04:49.621Z,27672.53
2023-01-07T07:05:49.671Z,27672.53
2023-01-07T07:06:49.632Z,27672.53
2023-01-07T07:07:49.601Z,27672.53
2023-01-07T07:08:49.571Z,27672.53
2023-01-07T07:09:49.574Z,27672.53
2023-01-07T07:10:49.586Z,27672.53
2023-01-07T07:11:49.575Z,27672.53
2023-01-07T07:12:49.540Z,27672.53
2023-01-07T07:13:49.522Z,27672.53
2023-01-07T07:14:49.603Z,27672.53
2023-01-07T07:15:49.624Z,27672.53
2023-01-07T07:16:49.516Z,27672.53
2023-01-07T07:17:49.487Z,27672.53
2023-01-07T07:18:49.491Z,27672.53
2023-01-07T07:19:49.464Z,27672.53
2023-01-07T07:20:49.491Z,27672.53
2023-01-07T07:21:49.489Z,27672.53
2023-01-07T07:22:49.522Z,27672.53
2023-01-07T07:23:49.423Z,27672.53
2023-01-07T07:24:49.431Z,27672.53
2023-01-07T07:25:49.418Z,27672.53
2023-01-07T07:26:49.423Z,27672.53
2023-01-07T07:27:49.479Z,27672.53
2023-01-07T07:28:49.378Z,27672.53
2023-01-07T07:29:49.381Z,27672.53
2023-01-07T07:30:49.408Z,27672.53
2023-01-07T07:31:49.366Z,27672.53
2023-01-07T07:32:49.337Z,27672.53
2023-01-07T07:33:49.340Z,27672.53
2023-01-07T07:34:49.310Z,27672.53
2023-01-07T07:35:49.389Z,27672.53
2023-01-07T07:36:49.319Z,27672.53
2023-01-07T07:37:49.317Z,27672.53
2023-01-07T07:38:49.276Z,27672.53
2023-01-07T07:39:49.257Z,27672.53
2023-01-07T07:40:49.261Z,27672.53
2023-01-07T07:41:49.261Z,27672.53
2023-01-07T07:43:10.899Z,27672.53
2023-01-07T07:43:49.226Z,27672.53
2023-01-07T07:44:49.223Z,27672.53
2023-01-07T07:45:49.197Z,27672.53
2023-01-07T07:46:49.281Z,27672.53
2023-01-07T07:47:49.189Z,27672.53
2023-01-07T07:48:49.228Z,27672.53
2023-01-07T07:49:49.166Z,27672.53
2023-01-07T07:50:49.180Z,27672.53
2023-01-07T07:51:49.224Z,27672.53
2023-01-07T07:52:49.138Z,27672.53
2023-01-07T07:53:49.127Z,27672.53
2023-01-07T07:54:49.113Z,27672.53
2023-01-07T07:55:49.106Z,27672.53
2023-01-07T07:56:49.113Z,27672.53
2023-01-07T07:57:49.148Z,27672.53
2023-01-07T07:58:49.072Z,27672.53
2023-01-07T07:59:49.056Z,27672.53
2023-01-07T08:00:49.071Z,27672.53
2023-01-07T08:01:49.249Z,27672.53
2023-01-07T08:02:49.024Z,27672.53
2023-01-07T08:03:49.024Z,27672.53
2023-01-07T08:04:49.019Z,27672.53
2023-01-07T08:05:49.002Z,27672.53
2023-01-07T08:06:49.017Z,27672.53
2023-01-07T08:07:48.972Z,27672.53
2023-01-07T08:08:48.975Z,27672.53
2023-01-07T08:09:48.968Z,27672.53
2023-01-07T08:10:48.970Z,27672.53
2023-01-07T08:11:48.950Z,27672.53
2023-01-07T08:12:48.933Z,27672.53
2023-01-07T08:13:48.912Z,27672.53
2023-01-07T08:14:48.915Z,27672.53
2023-01-07T08:15:48.947Z,27672.53
2023-01-07T08:16:48.907Z,27672.53
2023-01-07T08:17:48.874Z,27672.53
2023-01-07T08:18:48.873Z,27672.53
2023-01-07T08:19:48.846Z,27672.53
2023-01-07T08:20:48.849Z,27672.53
2023-01-07T08:21:48.861Z,27672.53
2023-01-07T08:22:48.841Z,27672.53
2023-01-07T08:23:48.807Z,27672.53
2023-01-07T08:24:48.813Z,27672.53
2023-01-07T08:25:48.794Z,27672.53
2023-01-07T08:26:48.807Z,27672.53
2023-01-07T08:27:48.770Z,27672.53
2023-01-07T08:28:48.783Z,27672.53
2023-01-07T08:29:48.756Z,27672.53
2023-01-07T08:30:48.745Z,27672.53
2023-01-07T08:31:48.759Z,27672.53
2023-01-07T08:32:48.722Z,27672.53
2023-01-07T08:33:48.721Z,27672.53
2023-01-07T08:34:48.727Z,27672.53
2023-01-07T08:35:48.682Z,27672.53
2023-01-07T08:36:48.703Z,27672.53
2023-01-07T08:37:48.692Z,27672.53
2023-01-07T08:38:48.684Z,27672.53
2023-01-07T08:39:48.730Z,27672.53
2023-01-07T08:40:48.639Z,27672.53
2023-01-07T08:41:48.653Z,27672.53
2023-01-07T08:42:48.637Z,27672.53
2023-01-07T08:43:48.633Z,27672.53
2023-01-07T08:44:48.607Z,27672.53
2023-01-07T08:45:48.637Z,27672.53
2023-01-07T08:46:48.667Z,27672.53
2023-01-07T08:47:48.570Z,27672.53
2023-01-07T08:48:48.580Z,27672.53
2023-01-07T08:49:48.551Z,27672.53
2023-01-07T08:50:48.551Z,27672.53
2023-01-07T08:51:48.561Z,27672.53
2023-01-07T08:52:48.531Z,27672.53
2023-01-07T08:53:48.511Z,27672.53
2023-01-07T08:54:48.501Z,27672.53
2023-01-07T08:55:48.483Z,27672.53
2023-01-07T08:56:48.520Z,27672.53
2023-01-07T08:57:48.474Z,27672.53
2023-01-07T08:58:48.467Z,27672.53
2023-01-07T08:59:48.449Z,27672.53
2023-01-07T09:00:48.500Z,27672.53
2023-01-07T09:01:48.549Z,27672.53
2023-01-07T09:02:48.572Z,27672.53
2023-01-07T09:03:48.406Z,27672.53
2023-01-07T09:04:48.426Z,27672.53
2023-01-07T09:05:48.395Z,27672.53
2023-01-07T09:06:48.393Z,27672.53
2023-01-07T09:07:56.351Z,27672.53
2023-01-07T09:08:48.367Z,27672.53
2023-01-07T09:09:54.855Z,27672.53
2023-01-07T09:10:48.373Z,27672.53
2023-01-07T09:11:48.320Z,27672.53
2023-01-07T09:12:48.409Z,27672.53
2023-01-07T09:13:48.305Z,27672.53
2023-01-07T09:14:48.313Z,27672.53
2023-01-07T09:15:48.285Z,27672.53
2023-01-07T09:16:48.345Z,27672.53
2023-01-07T09:17:48.316Z,27672.53
2023-01-07T09:18:48.258Z,27672.53
2023-01-07T09:19:48.248Z,27672.53
2023-01-07T09:20:48.281Z,27672.53
2023-01-07T09:21:48.221Z,27672.53
2023-01-07T09:22:48.235Z,27672.53
2023-01-07T09:23:48.239Z,27672.53
2023-01-07T09:24:48.198Z,27672.53
2023-01-07T09:25:48.180Z,27672.53
2023-01-07T09:26:48.188Z,27672.53
2023-01-07T09:27:48.185Z,27672.53
2023-01-07T09:28:48.185Z,27672.53
2023-01-07T09:29:48.139Z,27672.53
2023-01-07T09:30:48.137Z,27672.53
2023-01-07T09:31:48.186Z,27672.53
2023-01-07T09:32:48.139Z,27672.53
2023-01-07T09:33:48.099Z,27672.53
2023-01-07T09:34:48.143Z,27672.53
2023-01-07T09:35:48.092Z,27672.53
2023-01-07T09:36:48.083Z,27672.53
2023-01-07T09:37:48.103Z,27672.53
2023-01-07T09:38:48.057Z,27672.53
2023-01-07T09:39:48.082Z,27672.53
2023-01-07T09:40:48.085Z,27672.53
2023-01-07T09:41:48.019Z,27672.53
2023-01-07T09:42:48.048Z,27672.53
2023-01-07T09:44:00.128Z,27672.53
2023-01-07T09:44:48.029Z,27672.53
2023-01-07T09:45:48.024Z,27672.53
2023-01-07T09:46:48.014Z,27672.53
2023-01-07T09:47:47.985Z,27672.53
2023-01-07T09:48:48.100Z,27672.53
2023-01-07T09:49:47.950Z,27672.53
2023-01-07T09:50:47.939Z,27672.53
2023-01-07T09:51:47.938Z,27672.53
2023-01-07T09:52:47.945Z,27672.53
2023-01-07T09:53:47.902Z,27672.53
2023-01-07T09:54:47.896Z,27672.53
2023-01-07T09:56:11.687Z,27672.53
2023-01-07T09:56:47.894Z,27672.53
2023-01-07T09:57:47.911Z,27672.53
2023-01-07T09:58:47.859Z,27672.53
2023-01-07T09:59:47.862Z,27672.53
2023-01-07T10:00:47.838Z,27672.53
2023-01-07T10:01:47.820Z,27672.53
2023-01-07T10:02:48.505Z,27672.53
2023-01-07T10:03:47.879Z,27672.53
2023-01-07T10:04:47.842Z,27672.53
2023-01-07T10:05:47.806Z,27672.53
2023-01-07T10:06:47.780Z,27672.53
2023-01-07T10:07:47.753Z,27672.53
2023-01-07T10:08:47.821Z,27672.53
2023-01-07T10:09:47.812Z,27672.53
2023-01-07T10:10:47.783Z,27672.53
2023-01-07T10:11:47.712Z,27672.53
2023-01-07T10:12:47.717Z,27672.53
2023-01-07T10:13:47.716Z,27672.53
2023-01-07T10:14:47.870Z,27672.53
2023-01-07T10:15:47.673Z,27672.53
2023-01-07T10:16:47.781Z,27672.53
2023-01-07T10:17:47.666Z,27672.53
2023-01-07T10:18:47.671Z,27672.53
2023-01-07T10:19:47.643Z,27672.53
2023-01-07T10:20:47.627Z,27672.53
2023-01-07T10:21:47.667Z,27672.53
2023-01-07T10:22:47.608Z,27672.53
2023-01-07T10:23:47.614Z,27672.53
2023-01-07T10:24:47.587Z,27672.53
2023-01-07T10:25:47.580Z,27672.53
2023-01-07T10:26:47.864Z,27672.53
2023-01-07T10:27:47.549Z,27672.53
2023-01-07T10:28:47.560Z,27672.53
2023-01-07T10:29:47.542Z,27672.53
2023-01-07T10:30:47.637Z,27672.53
2023-01-07T10:31:54.076Z,27672.53
2023-01-07T10:32:47.493Z,27672.53
2023-01-07T10:33:47.512Z,27672.53
2023-01-07T10:34:47.509Z,27672.53
2023-01-07T10:35:47.473Z,27672.53
2023-01-07T10:36:47.473Z,27672.53
2023-01-07T10:37:47.452Z,27672.53
2023-01-07T10:38:47.479Z,27672.53
2023-01-07T10:39:47.443Z,27672.53
2023-01-07T10:40:47.542Z,27672.53
2023-01-07T10:41:47.457Z,27672.53
2023-01-07T10:42:47.441Z,27672.53
2023-01-07T10:43:47.419Z,27672.53
2023-01-07T10:44:47.367Z,27672.53
2023-01-07T10:45:47.397Z,27672.53
2023-01-07T10:46:47.381Z,27672.53
2023-01-07T10:47:47.350Z,27672.53
2023-01-07T10:48:47.396Z,27672.53
2023-01-07T10:49:47.337Z,27672.53
2023-01-07T10:50:47.326Z,27672.53
2023-01-07T10:51:47.324Z,27672.53
2023-01-07T10:52:47.289Z,27672.53
2023-01-07T10:53:47.343Z,27672.53
2023-01-07T10:54:47.274Z,27672.53
2023-01-07T10:55:47.259Z,27672.53
2023-01-07T10:56:47.256Z,27672.53
2023-01-07T10:57:47.260Z,27672.53
2023-01-07T10:58:47.268Z,27672.53
2023-01-07T10:59:47.278Z,27672.53
2023-01-07T11:00:47.312Z,27672.53
2023-01-07T11:01:47.419Z,27672.53
2023-01-07T11:02:47.228Z,27672.53
2023-01-07T11:03:47.236Z,27672.53
2023-01-07T11:04:47.299Z,27672.53
2023-01-07T11:05:47.162Z,27672.53
2023-01-07T11:06:47.145Z,27672.53
2023-01-07T11:07:47.203Z,27672.53
2023-01-07T11:08:47.398Z,27672.53
2023-01-07T11:09:47.150Z,27672.53
2023-01-07T11:10:47.109Z,27672.53
2023-01-07T11:11:47.101Z,27672.53
2023-01-07T11:12:47.118Z,27672.53
2023-01-07T11:13:47.123Z,27672.53
2023-01-07T11:14:47.108Z,27672.53
2023-01-07T11:15:47.105Z,27672.53
2023-01-07T11:16:47.061Z,27672.53
2023-01-07T11:17:47.084Z,27672.53
2023-01-07T11:18:47.063Z,27672.53
2023-01-07T11:19:47.019Z,27672.53
2023-01-07T11:20:47.048Z,27672.53
2023-01-07T11:21:46.997Z,27672.53
2023-01-07T11:22:47.075Z,27672.53
2023-01-07T11:23:47.163Z,27672.53
2023-01-07T11:24:46.988Z,27672.53
2023-01-07T11:25:47.314Z,27672.53
2023-01-07T11:26:47.008Z,27672.53
2023-01-07T11:27:53.427Z,27672.53
2023-01-07T11:28:46.971Z,27672.53
2023-01-07T11:29:46.908Z,27672.53
2023-01-07T11:30:47.004Z,27672.53
2023-01-07T11:31:53.473Z,27672.53
2023-01-07T11:32:53.649Z,27672.53
2023-01-07T11:34:01.512Z,27672.53
2023-01-07T11:34:46.865Z,27672.53
2023-01-07T11:35:46.862Z,27672.53
2023-01-07T11:36:46.889Z,27672.53
2023-01-07T11:37:46.906Z,27672.53
2023-01-07T11:38:47.032Z,27672.53
2023-01-07T11:39:46.871Z,27672.53
2023-01-07T11:40:46.817Z,27672.53
2023-01-07T11:41:46.788Z,27672.53
2023-01-07T11:42:46.813Z,27672.53
2023-01-07T11:43:46.774Z,27672.53
2023-01-07T11:44:46.794Z,27672.53
2023-01-07T11:45:46.763Z,27672.53
2023-01-07T11:46:46.853Z,27672.53
2023-01-07T11:47:46.753Z,27672.53
2023-01-07T11:48:46.740Z,27672.53
2023-01-07T11:49:46.736Z,27672.53
2023-01-07T11:50:46.705Z,27672.53
2023-01-07T11:51:48.878Z,27672.53
2023-01-07T11:52:46.676Z,27672.53
2023-01-07T11:53:46.708Z,27672.53
2023-01-07T11:54:46.713Z,27672.53